sensor_id;sensor_type;location;lat;lon;timestamp;P1;durP1;ratioP1;P2;durP2;ratioP2
30593;SDS011;33199;47.590;8.300;2023-02-28T00:00:21;1.60;;;1.50;;
30593;SDS011;33199;47.590;8.300;2023-02-28T00:02:47;1.60;;;1.50;;
30593;SDS011;33199;47.590;8.300;2023-02-28T00:05:13;1.38;;;1.27;;
30593;SDS011;33199;47.590;8.300;2023-02-28T00:07:41;1.40;;;1.30;;
30593;SDS011;33199;47.590;8.300;2023-02-28T00:10:07;1.60;;;1.50;;
30593;SDS011;33199;47.590;8.300;2023-02-28T00:12:39;1.60;;;1.45;;
30593;SDS011;33199;47.590;8.300;2023-02-28T00:15:06;1.63;;;1.35;;
30593;SDS011;33199;47.590;8.300;2023-02-28T00:17:33;1.20;;;1.20;;
30593;SDS011;33199;47.590;8.300;2023-02-28T00:19:59;2.22;;;1.50;;
30593;SDS011;33199;47.590;8.300;2023-02-28T00:22:40;6.03;;;1.75;;
30593;SDS011;33199;47.590;8.300;2023-02-28T00:25:08;4.18;;;1.50;;
30593;SDS011;33199;47.590;8.300;2023-02-28T00:27:35;1.33;;;1.27;;
30593;SDS011;33199;47.590;8.300;2023-02-28T00:30:02;2.13;;;1.60;;
30593;SDS011;33199;47.590;8.300;2023-02-28T00:32:28;1.42;;;1.33;;
30593;SDS011;33199;47.590;8.300;2023-02-28T00:34:54;2.50;;;1.30;;
30593;SDS011;33199;47.590;8.300;2023-02-28T00:37:20;4.22;;;1.60;;
30593;SDS011;33199;47.590;8.300;2023-02-28T00:39:46;1.50;;;1.40;;
30593;SDS011;33199;47.590;8.300;2023-02-28T00:42:11;1.50;;;1.40;;
30593;SDS011;33199;47.590;8.300;2023-02-28T00:44:37;1.35;;;1.25;;
30593;SDS011;33199;47.590;8.300;2023-02-28T00:47:03;2.13;;;1.40;;
30593;SDS011;33199;47.590;8.300;2023-02-28T00:49:28;1.20;;;1.10;;
30593;SDS011;33199;47.590;8.300;2023-02-28T00:51:54;1.50;;;1.40;;
30593;SDS011;33199;47.590;8.300;2023-02-28T00:54:22;1.50;;;1.40;;
30593;SDS011;33199;47.590;8.300;2023-02-28T00:56:48;1.50;;;1.40;;
30593;SDS011;33199;47.590;8.300;2023-02-28T00:59:15;1.45;;;1.35;;
30593;SDS011;33199;47.590;8.300;2023-02-28T01:01:41;1.52;;;1.40;;
30593;SDS011;33199;47.590;8.300;2023-02-28T01:04:08;3.58;;;1.80;;
30593;SDS011;33199;47.590;8.300;2023-02-28T01:06:34;2.67;;;1.58;;
30593;SDS011;33199;47.590;8.300;2023-02-28T01:09:01;3.00;;;1.33;;
30593;SDS011;33199;47.590;8.300;2023-02-28T01:11:27;1.80;;;1.40;;
30593;SDS011;33199;47.590;8.300;2023-02-28T01:13:53;1.48;;;1.38;;
30593;SDS011;33199;47.590;8.300;2023-02-28T01:16:18;1.50;;;1.20;;
30593;SDS011;33199;47.590;8.300;2023-02-28T01:18:44;1.92;;;1.25;;
30593;SDS011;33199;47.590;8.300;2023-02-28T01:21:11;1.30;;;1.20;;
30593;SDS011;33199;47.590;8.300;2023-02-28T01:23:39;1.30;;;1.20;;
30593;SDS011;33199;47.590;8.300;2023-02-28T01:26:09;1.55;;;1.45;;
30593;SDS011;33199;47.590;8.300;2023-02-28T01:28:37;1.58;;;1.48;;
30593;SDS011;33199;47.590;8.300;2023-02-28T01:31:03;1.70;;;1.30;;
30593;SDS011;33199;47.590;8.300;2023-02-28T01:33:29;1.52;;;1.42;;
30593;SDS011;33199;47.590;8.300;2023-02-28T01:36:02;2.20;;;1.30;;
30593;SDS011;33199;47.590;8.300;2023-02-28T01:38:30;1.45;;;1.35;;
30593;SDS011;33199;47.590;8.300;2023-02-28T01:40:55;1.70;;;1.60;;
30593;SDS011;33199;47.590;8.300;2023-02-28T01:45:57;1.55;;;1.45;;
30593;SDS011;33199;47.590;8.300;2023-02-28T01:48:27;1.33;;;1.23;;
30593;SDS011;33199;47.590;8.300;2023-02-28T01:50:58;1.73;;;1.60;;
30593;SDS011;33199;47.590;8.300;2023-02-28T01:53:36;2.22;;;1.63;;
30593;SDS011;33199;47.590;8.300;2023-02-28T01:56:07;2.97;;;1.65;;
30593;SDS011;33199;47.590;8.300;2023-02-28T01:58:35;1.80;;;1.70;;
30593;SDS011;33199;47.590;8.300;2023-02-28T02:01:02;2.80;;;1.45;;
30593;SDS011;33199;47.590;8.300;2023-02-28T02:03:27;2.03;;;1.67;;
30593;SDS011;33199;47.590;8.300;2023-02-28T02:05:55;1.90;;;1.50;;
30593;SDS011;33199;47.590;8.300;2023-02-28T02:08:25;1.65;;;1.42;;
30593;SDS011;33199;47.590;8.300;2023-02-28T02:10:56;1.50;;;1.40;;
30593;SDS011;33199;47.590;8.300;2023-02-28T02:24:44;1.75;;;1.48;;
30593;SDS011;33199;47.590;8.300;2023-02-28T02:32:46;1.60;;;1.50;;
30593;SDS011;33199;47.590;8.300;2023-02-28T02:35:15;1.60;;;1.50;;
30593;SDS011;33199;47.590;8.300;2023-02-28T02:43:30;1.55;;;1.45;;
30593;SDS011;33199;47.590;8.300;2023-02-28T02:46:06;2.35;;;1.67;;
30593;SDS011;33199;47.590;8.300;2023-02-28T02:48:42;1.55;;;1.45;;
30593;SDS011;33199;47.590;8.300;2023-02-28T02:51:12;1.58;;;1.48;;
30593;SDS011;33199;47.590;8.300;2023-02-28T02:53:47;2.15;;;1.45;;
30593;SDS011;33199;47.590;8.300;2023-02-28T02:56:17;1.58;;;1.48;;
30593;SDS011;33199;47.590;8.300;2023-02-28T02:58:46;1.50;;;1.40;;
30593;SDS011;33199;47.590;8.300;2023-02-28T03:01:18;1.10;;;1.10;;
30593;SDS011;33199;47.590;8.300;2023-02-28T03:03:56;1.40;;;1.30;;
30593;SDS011;33199;47.590;8.300;2023-02-28T03:06:24;1.42;;;1.40;;
30593;SDS011;33199;47.590;8.300;2023-02-28T03:08:50;1.90;;;1.40;;
30593;SDS011;33199;47.590;8.300;2023-02-28T03:11:16;1.27;;;1.17;;
30593;SDS011;33199;47.590;8.300;2023-02-28T03:18:58;1.58;;;1.48;;
30593;SDS011;33199;47.590;8.300;2023-02-28T03:21:52;1.52;;;1.40;;
30593;SDS011;33199;47.590;8.300;2023-02-28T03:27:30;1.40;;;1.30;;
30593;SDS011;33199;47.590;8.300;2023-02-28T03:32:42;3.40;;;1.60;;
30593;SDS011;33199;47.590;8.300;2023-02-28T03:35:23;1.40;;;1.30;;
30593;SDS011;33199;47.590;8.300;2023-02-28T03:38:00;1.55;;;1.40;;
30593;SDS011;33199;47.590;8.300;2023-02-28T03:40:33;1.60;;;1.30;;
30593;SDS011;33199;47.590;8.300;2023-02-28T03:43:04;1.80;;;1.70;;
30593;SDS011;33199;47.590;8.300;2023-02-28T03:45:36;1.63;;;1.50;;
30593;SDS011;33199;47.590;8.300;2023-02-28T03:48:09;1.35;;;1.33;;
30593;SDS011;33199;47.590;8.300;2023-02-28T03:50:41;1.88;;;1.67;;
30593;SDS011;33199;47.590;8.300;2023-02-28T03:55:42;1.35;;;1.20;;
30593;SDS011;33199;47.590;8.300;2023-02-28T03:58:27;1.40;;;1.30;;
30593;SDS011;33199;47.590;8.300;2023-02-28T04:01:10;1.60;;;1.50;;
30593;SDS011;33199;47.590;8.300;2023-02-28T04:03:50;1.50;;;1.40;;
30593;SDS011;33199;47.590;8.300;2023-02-28T04:06:17;1.60;;;1.40;;
30593;SDS011;33199;47.590;8.300;2023-02-28T04:11:21;1.13;;;1.13;;
30593;SDS011;33199;47.590;8.300;2023-02-28T04:13:48;1.45;;;1.35;;
30593;SDS011;33199;47.590;8.300;2023-02-28T04:16:14;1.58;;;1.48;;
30593;SDS011;33199;47.590;8.300;2023-02-28T04:18:41;1.63;;;1.52;;
30593;SDS011;33199;47.590;8.300;2023-02-28T04:21:10;1.55;;;1.45;;
30593;SDS011;33199;47.590;8.300;2023-02-28T04:23:36;1.50;;;1.40;;
30593;SDS011;33199;47.590;8.300;2023-02-28T04:26:02;1.40;;;1.30;;
30593;SDS011;33199;47.590;8.300;2023-02-28T04:28:28;2.08;;;1.50;;
30593;SDS011;33199;47.590;8.300;2023-02-28T04:30:55;1.58;;;1.48;;
30593;SDS011;33199;47.590;8.300;2023-02-28T04:33:21;2.00;;;1.67;;
30593;SDS011;33199;47.590;8.300;2023-02-28T04:35:47;2.88;;;1.60;;
30593;SDS011;33199;47.590;8.300;2023-02-28T04:38:13;1.60;;;1.30;;
30593;SDS011;33199;47.590;8.300;2023-02-28T04:40:38;1.70;;;1.60;;
30593;SDS011;33199;47.590;8.300;2023-02-28T04:43:04;1.48;;;1.30;;
30593;SDS011;33199;47.590;8.300;2023-02-28T04:45:29;2.85;;;1.50;;
30593;SDS011;33199;47.590;8.300;2023-02-28T04:47:57;1.73;;;1.40;;
30593;SDS011;33199;47.590;8.300;2023-02-28T04:50:23;1.33;;;1.23;;
30593;SDS011;33199;47.590;8.300;2023-02-28T04:52:48;1.40;;;1.30;;
30593;SDS011;33199;47.590;8.300;2023-02-28T04:55:14;2.17;;;1.50;;
30593;SDS011;33199;47.590;8.300;2023-02-28T04:57:39;1.95;;;1.40;;
30593;SDS011;33199;47.590;8.300;2023-02-28T05:00:08;2.10;;;1.53;;
30593;SDS011;33199;47.590;8.300;2023-02-28T05:02:36;1.45;;;1.35;;
30593;SDS011;33199;47.590;8.300;2023-02-28T05:05:04;1.67;;;1.58;;
30593;SDS011;33199;47.590;8.300;2023-02-28T05:07:30;1.25;;;1.15;;
30593;SDS011;33199;47.590;8.300;2023-02-28T05:09:55;1.98;;;1.48;;
30593;SDS011;33199;47.590;8.300;2023-02-28T05:12:21;1.60;;;1.50;;
30593;SDS011;33199;47.590;8.300;2023-02-28T05:14:47;1.70;;;1.35;;
30593;SDS011;33199;47.590;8.300;2023-02-28T05:17:12;1.55;;;1.45;;
30593;SDS011;33199;47.590;8.300;2023-02-28T05:19:38;1.55;;;1.30;;
30593;SDS011;33199;47.590;8.300;2023-02-28T05:22:03;1.58;;;1.40;;
30593;SDS011;33199;47.590;8.300;2023-02-28T05:24:29;2.78;;;1.27;;
30593;SDS011;33199;47.590;8.300;2023-02-28T05:26:54;1.65;;;1.55;;
30593;SDS011;33199;47.590;8.300;2023-02-28T05:29:20;3.25;;;2.95;;
30593;SDS011;33199;47.590;8.300;2023-02-28T05:31:46;4.18;;;2.90;;
30593;SDS011;33199;47.590;8.300;2023-02-28T05:34:12;3.20;;;2.90;;
30593;SDS011;33199;47.590;8.300;2023-02-28T05:36:38;3.67;;;2.88;;
30593;SDS011;33199;47.590;8.300;2023-02-28T05:39:07;4.05;;;2.60;;
30593;SDS011;33199;47.590;8.300;2023-02-28T05:41:37;2.95;;;2.65;;
30593;SDS011;33199;47.590;8.300;2023-02-28T05:44:04;2.58;;;2.38;;
30593;SDS011;33199;47.590;8.300;2023-02-28T05:46:29;3.58;;;2.60;;
30593;SDS011;33199;47.590;8.300;2023-02-28T05:48:55;5.30;;;2.72;;
30593;SDS011;33199;47.590;8.300;2023-02-28T05:51:22;2.83;;;2.60;;
30593;SDS011;33199;47.590;8.300;2023-02-28T05:53:48;2.60;;;2.25;;
30593;SDS011;33199;47.590;8.300;2023-02-28T05:56:14;3.97;;;2.30;;
30593;SDS011;33199;47.590;8.300;2023-02-28T05:58:40;3.17;;;2.33;;
30593;SDS011;33199;47.590;8.300;2023-02-28T06:04:01;3.40;;;2.47;;
30593;SDS011;33199;47.590;8.300;2023-02-28T06:06:28;2.50;;;2.30;;
30593;SDS011;33199;47.590;8.300;2023-02-28T06:08:54;1.80;;;1.70;;
30593;SDS011;33199;47.590;8.300;2023-02-28T06:11:21;2.28;;;2.15;;
30593;SDS011;33199;47.590;8.300;2023-02-28T06:13:52;2.00;;;1.80;;
30593;SDS011;33199;47.590;8.300;2023-02-28T06:16:19;1.75;;;1.65;;
30593;SDS011;33199;47.590;8.300;2023-02-28T06:18:45;2.13;;;2.03;;
30593;SDS011;33199;47.590;8.300;2023-02-28T06:21:11;2.30;;;2.08;;
30593;SDS011;33199;47.590;8.300;2023-02-28T06:23:37;1.60;;;1.50;;
30593;SDS011;33199;47.590;8.300;2023-02-28T06:26:03;2.20;;;2.00;;
30593;SDS011;33199;47.590;8.300;2023-02-28T06:28:28;2.45;;;2.03;;
30593;SDS011;33199;47.590;8.300;2023-02-28T06:30:54;1.77;;;1.67;;
30593;SDS011;33199;47.590;8.300;2023-02-28T06:33:20;1.90;;;1.80;;
30593;SDS011;33199;47.590;8.300;2023-02-28T06:35:46;1.48;;;1.38;;
30593;SDS011;33199;47.590;8.300;2023-02-28T06:38:14;2.45;;;1.70;;
30593;SDS011;33199;47.590;8.300;2023-02-28T06:40:40;1.98;;;1.50;;
30593;SDS011;33199;47.590;8.300;2023-02-28T06:43:06;1.90;;;1.80;;
30593;SDS011;33199;47.590;8.300;2023-02-28T06:45:32;3.22;;;2.03;;
30593;SDS011;33199;47.590;8.300;2023-02-28T06:47:57;1.77;;;1.67;;
30593;SDS011;33199;47.590;8.300;2023-02-28T06:50:25;2.38;;;1.77;;
30593;SDS011;33199;47.590;8.300;2023-02-28T06:52:50;4.97;;;2.05;;
30593;SDS011;33199;47.590;8.300;2023-02-28T06:55:18;3.00;;;2.17;;
30593;SDS011;33199;47.590;8.300;2023-02-28T06:57:44;1.90;;;1.70;;
30593;SDS011;33199;47.590;8.300;2023-02-28T07:00:10;2.75;;;1.85;;
30593;SDS011;33199;47.590;8.300;2023-02-28T07:02:37;2.33;;;1.63;;
30593;SDS011;33199;47.590;8.300;2023-02-28T07:05:03;4.07;;;2.10;;
30593;SDS011;33199;47.590;8.300;2023-02-28T07:07:30;1.95;;;1.67;;
30593;SDS011;33199;47.590;8.300;2023-02-28T07:09:55;2.70;;;1.75;;
30593;SDS011;33199;47.590;8.300;2023-02-28T07:12:21;1.88;;;1.73;;
30593;SDS011;33199;47.590;8.300;2023-02-28T07:14:47;1.80;;;1.58;;
30593;SDS011;33199;47.590;8.300;2023-02-28T07:17:12;1.77;;;1.52;;
30593;SDS011;33199;47.590;8.300;2023-02-28T07:19:38;1.70;;;1.60;;
30593;SDS011;33199;47.590;8.300;2023-02-28T07:22:04;2.00;;;1.90;;
30593;SDS011;33199;47.590;8.300;2023-02-28T07:24:31;2.00;;;1.80;;
30593;SDS011;33199;47.590;8.300;2023-02-28T07:26:57;2.65;;;1.60;;
30593;SDS011;33199;47.590;8.300;2023-02-28T07:29:22;1.92;;;1.70;;
30593;SDS011;33199;47.590;8.300;2023-02-28T07:31:48;1.52;;;1.42;;
30593;SDS011;33199;47.590;8.300;2023-02-28T07:34:15;1.75;;;1.65;;
30593;SDS011;33199;47.590;8.300;2023-02-28T07:36:41;1.88;;;1.67;;
30593;SDS011;33199;47.590;8.300;2023-02-28T07:39:06;1.95;;;1.80;;
30593;SDS011;33199;47.590;8.300;2023-02-28T07:41:35;1.60;;;1.50;;
30593;SDS011;33199;47.590;8.300;2023-02-28T07:44:04;1.38;;;1.30;;
30593;SDS011;33199;47.590;8.300;2023-02-28T07:46:30;2.42;;;1.77;;
30593;SDS011;33199;47.590;8.300;2023-02-28T07:49:00;1.80;;;1.70;;
30593;SDS011;33199;47.590;8.300;2023-02-28T07:51:27;1.70;;;1.60;;
30593;SDS011;33199;47.590;8.300;2023-02-28T07:53:53;2.35;;;1.67;;
30593;SDS011;33199;47.590;8.300;2023-02-28T07:56:19;1.70;;;1.60;;
30593;SDS011;33199;47.590;8.300;2023-02-28T07:58:45;2.38;;;1.90;;
30593;SDS011;33199;47.590;8.300;2023-02-28T08:01:10;1.70;;;1.60;;
30593;SDS011;33199;47.590;8.300;2023-02-28T08:03:36;2.10;;;1.90;;
30593;SDS011;33199;47.590;8.300;2023-02-28T08:06:06;1.70;;;1.60;;
30593;SDS011;33199;47.590;8.300;2023-02-28T08:08:40;1.50;;;1.40;;
30593;SDS011;33199;47.590;8.300;2023-02-28T08:11:05;1.67;;;1.58;;
30593;SDS011;33199;47.590;8.300;2023-02-28T08:13:31;2.47;;;1.42;;
30593;SDS011;33199;47.590;8.300;2023-02-28T08:15:57;1.88;;;1.77;;
30593;SDS011;33199;47.590;8.300;2023-02-28T08:18:22;1.90;;;1.80;;
30593;SDS011;33199;47.590;8.300;2023-02-28T08:20:48;1.95;;;1.70;;
30593;SDS011;33199;47.590;8.300;2023-02-28T08:23:14;1.92;;;1.83;;
30593;SDS011;33199;47.590;8.300;2023-02-28T08:25:40;2.03;;;1.90;;
30593;SDS011;33199;47.590;8.300;2023-02-28T08:28:05;3.10;;;1.70;;
30593;SDS011;33199;47.590;8.300;2023-02-28T08:30:31;1.77;;;1.50;;
30593;SDS011;33199;47.590;8.300;2023-02-28T08:32:57;1.70;;;1.60;;
30593;SDS011;33199;47.590;8.300;2023-02-28T08:35:22;1.98;;;1.88;;
30593;SDS011;33199;47.590;8.300;2023-02-28T08:37:48;2.47;;;1.80;;
30593;SDS011;33199;47.590;8.300;2023-02-28T08:40:15;1.65;;;1.55;;
30593;SDS011;33199;47.590;8.300;2023-02-28T08:42:45;1.90;;;1.35;;
30593;SDS011;33199;47.590;8.300;2023-02-28T08:45:12;1.50;;;1.40;;
30593;SDS011;33199;47.590;8.300;2023-02-28T08:47:39;2.00;;;1.70;;
30593;SDS011;33199;47.590;8.300;2023-02-28T08:50:05;1.70;;;1.60;;
30593;SDS011;33199;47.590;8.300;2023-02-28T08:52:32;2.45;;;2.25;;
30593;SDS011;33199;47.590;8.300;2023-02-28T08:54:58;1.92;;;1.75;;
30593;SDS011;33199;47.590;8.300;2023-02-28T08:57:23;1.70;;;1.60;;
30593;SDS011;33199;47.590;8.300;2023-02-28T08:59:51;2.40;;;1.80;;
30593;SDS011;33199;47.590;8.300;2023-02-28T09:02:17;4.28;;;3.88;;
30593;SDS011;33199;47.590;8.300;2023-02-28T09:04:43;5.88;;;4.70;;
30593;SDS011;33199;47.590;8.300;2023-02-28T09:07:12;6.47;;;3.63;;
30593;SDS011;33199;47.590;8.300;2023-02-28T09:09:37;4.10;;;3.70;;
30593;SDS011;33199;47.590;8.300;2023-02-28T09:12:18;4.68;;;3.45;;
30593;SDS011;33199;47.590;8.300;2023-02-28T09:14:45;3.67;;;3.38;;
30593;SDS011;33199;47.590;8.300;2023-02-28T09:17:10;3.60;;;3.35;;
30593;SDS011;33199;47.590;8.300;2023-02-28T09:19:36;3.67;;;3.38;;
30593;SDS011;33199;47.590;8.300;2023-02-28T09:22:02;4.10;;;2.97;;
30593;SDS011;33199;47.590;8.300;2023-02-28T09:24:27;2.85;;;2.65;;
30593;SDS011;33199;47.590;8.300;2023-02-28T09:26:53;3.25;;;2.95;;
30593;SDS011;33199;47.590;8.300;2023-02-28T09:29:18;3.95;;;3.08;;
30593;SDS011;33199;47.590;8.300;2023-02-28T09:31:44;3.53;;;3.22;;
30593;SDS011;33199;47.590;8.300;2023-02-28T09:34:10;3.28;;;2.97;;
30593;SDS011;33199;47.590;8.300;2023-02-28T09:36:35;3.30;;;2.90;;
30593;SDS011;33199;47.590;8.300;2023-02-28T09:39:04;4.63;;;3.10;;
30593;SDS011;33199;47.590;8.300;2023-02-28T09:41:32;3.35;;;3.00;;
30593;SDS011;33199;47.590;8.300;2023-02-28T09:44:57;3.15;;;2.70;;
30593;SDS011;33199;47.590;8.300;2023-02-28T09:47:18;3.30;;;3.00;;
30593;SDS011;33199;47.590;8.300;2023-02-28T09:49:52;3.28;;;2.72;;
30593;SDS011;33199;47.590;8.300;2023-02-28T09:52:18;5.45;;;2.65;;
30593;SDS011;33199;47.590;8.300;2023-02-28T09:54:47;3.25;;;2.88;;
30593;SDS011;33199;47.590;8.300;2023-02-28T10:00:03;3.13;;;2.35;;
30593;SDS011;33199;47.590;8.300;2023-02-28T10:02:54;3.60;;;2.60;;
30593;SDS011;33199;47.590;8.300;2023-02-28T10:05:36;3.13;;;2.58;;
30593;SDS011;33199;47.590;8.300;2023-02-28T10:16:09;2.33;;;2.17;;
30593;SDS011;33199;47.590;8.300;2023-02-28T10:21:20;2.58;;;2.38;;
30593;SDS011;33199;47.590;8.300;2023-02-28T10:23:59;2.30;;;2.15;;
30593;SDS011;33199;47.590;8.300;2023-02-28T10:26:41;3.05;;;2.70;;
30593;SDS011;33199;47.590;8.300;2023-02-28T10:29:10;2.50;;;2.20;;
30593;SDS011;33199;47.590;8.300;2023-02-28T10:31:35;2.63;;;2.42;;
30593;SDS011;33199;47.590;8.300;2023-02-28T10:34:01;3.63;;;2.42;;
30593;SDS011;33199;47.590;8.300;2023-02-28T10:36:29;2.45;;;2.25;;
30593;SDS011;33199;47.590;8.300;2023-02-28T10:38:54;2.92;;;2.22;;
30593;SDS011;33199;47.590;8.300;2023-02-28T10:41:30;2.30;;;2.10;;
30593;SDS011;33199;47.590;8.300;2023-02-28T10:46:46;3.83;;;2.35;;
30593;SDS011;33199;47.590;8.300;2023-02-28T10:49:14;2.15;;;2.00;;
30593;SDS011;33199;47.590;8.300;2023-02-28T10:51:45;3.55;;;2.15;;
30593;SDS011;33199;47.590;8.300;2023-02-28T10:54:27;3.10;;;2.00;;
30593;SDS011;33199;47.590;8.300;2023-02-28T10:59:43;2.95;;;2.17;;
30593;SDS011;33199;47.590;8.300;2023-02-28T11:02:32;3.15;;;2.22;;
30593;SDS011;33199;47.590;8.300;2023-02-28T11:04:58;2.15;;;2.05;;
30593;SDS011;33199;47.590;8.300;2023-02-28T11:07:23;2.10;;;1.90;;
30593;SDS011;33199;47.590;8.300;2023-02-28T11:09:52;4.47;;;2.13;;
30593;SDS011;33199;47.590;8.300;2023-02-28T11:12:23;1.87;;;1.73;;
30593;SDS011;33199;47.590;8.300;2023-02-28T11:15:03;2.33;;;2.15;;
30593;SDS011;33199;47.590;8.300;2023-02-28T11:18:42;2.63;;;2.10;;
30593;SDS011;33199;47.590;8.300;2023-02-28T11:20:52;2.33;;;2.13;;
30593;SDS011;33199;47.590;8.300;2023-02-28T11:25:49;2.10;;;2.00;;
30593;SDS011;33199;47.590;8.300;2023-02-28T11:28:32;2.15;;;2.05;;
30593;SDS011;33199;47.590;8.300;2023-02-28T11:33:45;2.10;;;2.00;;
30593;SDS011;33199;47.590;8.300;2023-02-28T11:36:22;3.10;;;1.75;;
30593;SDS011;33199;47.590;8.300;2023-02-28T11:38:50;2.97;;;2.05;;
30593;SDS011;33199;47.590;8.300;2023-02-28T11:46:56;2.38;;;2.08;;
30593;SDS011;33199;47.590;8.300;2023-02-28T11:52:15;9.98;;;5.82;;
30593;SDS011;33199;47.590;8.300;2023-02-28T11:55:03;7.13;;;5.63;;
30593;SDS011;33199;47.590;8.300;2023-02-28T12:03:24;7.60;;;4.85;;
30593;SDS011;33199;47.590;8.300;2023-02-28T12:11:19;5.03;;;4.53;;
30593;SDS011;33199;47.590;8.300;2023-02-28T12:14:55;7.03;;;4.43;;
30593;SDS011;33199;47.590;8.300;2023-02-28T12:17:24;7.28;;;4.30;;
30593;SDS011;33199;47.590;8.300;2023-02-28T12:20:21;6.15;;;4.82;;
30593;SDS011;33199;47.590;8.300;2023-02-28T12:22:58;7.28;;;4.47;;
30593;SDS011;33199;47.590;8.300;2023-02-28T12:25:39;5.10;;;3.90;;
30593;SDS011;33199;47.590;8.300;2023-02-28T12:28:13;5.57;;;4.50;;
30593;SDS011;33199;47.590;8.300;2023-02-28T12:30:46;5.82;;;4.25;;
30593;SDS011;33199;47.590;8.300;2023-02-28T12:33:27;5.13;;;3.85;;
30593;SDS011;33199;47.590;8.300;2023-02-28T12:35:59;8.68;;;4.15;;
30593;SDS011;33199;47.590;8.300;2023-02-28T12:38:45;5.07;;;3.92;;
30593;SDS011;33199;47.590;8.300;2023-02-28T12:41:17;6.97;;;3.80;;
30593;SDS011;33199;47.590;8.300;2023-02-28T12:44:03;4.07;;;3.67;;
30593;SDS011;33199;47.590;8.300;2023-02-28T12:46:37;4.97;;;3.80;;
30593;SDS011;33199;47.590;8.300;2023-02-28T12:49:12;3.92;;;3.53;;
30593;SDS011;33199;47.590;8.300;2023-02-28T12:51:41;6.22;;;3.50;;
30593;SDS011;33199;47.590;8.300;2023-02-28T12:59:38;4.28;;;3.50;;
30593;SDS011;33199;47.590;8.300;2023-02-28T13:04:55;5.18;;;3.63;;
30593;SDS011;33199;47.590;8.300;2023-02-28T13:10:39;3.40;;;3.10;;
30593;SDS011;33199;47.590;8.300;2023-02-28T13:13:25;3.75;;;3.38;;
30593;SDS011;33199;47.590;8.300;2023-02-28T13:18:42;3.15;;;2.85;;
30593;SDS011;33199;47.590;8.300;2023-02-28T13:21:21;3.65;;;3.33;;
30593;SDS011;33199;47.590;8.300;2023-02-28T13:26:22;4.72;;;3.03;;
30593;SDS011;33199;47.590;8.300;2023-02-28T13:34:33;2.80;;;2.60;;
30593;SDS011;33199;47.590;8.300;2023-02-28T13:39:54;2.80;;;2.60;;
30593;SDS011;33199;47.590;8.300;2023-02-28T13:42:32;2.90;;;2.70;;
30593;SDS011;33199;47.590;8.300;2023-02-28T14:06:23;2.72;;;2.45;;
30593;SDS011;33199;47.590;8.300;2023-02-28T14:11:27;2.72;;;2.53;;
30593;SDS011;33199;47.590;8.300;2023-02-28T14:13:58;2.97;;;2.63;;
30593;SDS011;33199;47.590;8.300;2023-02-28T14:16:35;2.97;;;2.60;;
30593;SDS011;33199;47.590;8.300;2023-02-28T14:19:11;4.28;;;2.78;;
30593;SDS011;33199;47.590;8.300;2023-02-28T14:25:00;3.65;;;2.78;;
30593;SDS011;33199;47.590;8.300;2023-02-28T14:38:27;2.70;;;2.58;;
30593;SDS011;33199;47.590;8.300;2023-02-28T14:41:00;2.90;;;2.63;;
30593;SDS011;33199;47.590;8.300;2023-02-28T14:43:31;3.85;;;3.05;;
30593;SDS011;33199;47.590;8.300;2023-02-28T14:45:58;2.78;;;2.50;;
30593;SDS011;33199;47.590;8.300;2023-02-28T14:48:25;3.83;;;2.85;;
30593;SDS011;33199;47.590;8.300;2023-02-28T14:50:56;2.85;;;2.58;;
30593;SDS011;33199;47.590;8.300;2023-02-28T14:53:25;3.15;;;2.85;;
30593;SDS011;33199;47.590;8.300;2023-02-28T14:55:53;2.75;;;2.55;;
30593;SDS011;33199;47.590;8.300;2023-02-28T14:58:29;2.80;;;2.63;;
30593;SDS011;33199;47.590;8.300;2023-02-28T15:00:58;3.25;;;2.67;;
30593;SDS011;33199;47.590;8.300;2023-02-28T15:05:59;2.88;;;2.67;;
30593;SDS011;33199;47.590;8.300;2023-02-28T15:08:30;5.90;;;2.75;;
30593;SDS011;33199;47.590;8.300;2023-02-28T15:11:01;3.63;;;2.70;;
30593;SDS011;33199;47.590;8.300;2023-02-28T15:13:43;2.63;;;2.17;;
30593;SDS011;33199;47.590;8.300;2023-02-28T15:16:32;2.92;;;2.72;;
30593;SDS011;33199;47.590;8.300;2023-02-28T15:21:30;2.55;;;2.33;;
30593;SDS011;33199;47.590;8.300;2023-02-28T15:24:07;2.95;;;2.60;;
30593;SDS011;33199;47.590;8.300;2023-02-28T15:26:36;3.35;;;3.05;;
30593;SDS011;33199;47.590;8.300;2023-02-28T15:29:10;3.03;;;2.83;;
30593;SDS011;33199;47.590;8.300;2023-02-28T15:31:41;9.15;;;7.03;;
30593;SDS011;33199;47.590;8.300;2023-02-28T15:34:18;9.60;;;6.80;;
30593;SDS011;33199;47.590;8.300;2023-02-28T15:36:45;8.10;;;6.60;;
30593;SDS011;33199;47.590;8.300;2023-02-28T15:39:18;7.80;;;5.32;;
30593;SDS011;33199;47.590;8.300;2023-02-28T15:41:47;7.70;;;5.65;;
30593;SDS011;33199;47.590;8.300;2023-02-28T15:44:28;7.07;;;5.47;;
30593;SDS011;33199;47.590;8.300;2023-02-28T15:49:28;10.02;;;5.25;;
30593;SDS011;33199;47.590;8.300;2023-02-28T15:51:59;6.22;;;5.32;;
30593;SDS011;33199;47.590;8.300;2023-02-28T15:54:29;6.47;;;4.65;;
30593;SDS011;33199;47.590;8.300;2023-02-28T15:57:01;5.43;;;4.47;;
30593;SDS011;33199;47.590;8.300;2023-02-28T15:59:33;8.68;;;5.03;;
30593;SDS011;33199;47.590;8.300;2023-02-28T16:07:55;6.47;;;4.50;;
30593;SDS011;33199;47.590;8.300;2023-02-28T16:10:23;5.90;;;4.00;;
30593;SDS011;33199;47.590;8.300;2023-02-28T16:12:52;7.18;;;4.43;;
30593;SDS011;33199;47.590;8.300;2023-02-28T16:15:19;7.07;;;4.82;;
30593;SDS011;33199;47.590;8.300;2023-02-28T16:17:51;5.53;;;4.07;;
30593;SDS011;33199;47.590;8.300;2023-02-28T16:20:20;4.93;;;3.85;;
30593;SDS011;33199;47.590;8.300;2023-02-28T16:22:53;5.68;;;4.03;;
30593;SDS011;33199;47.590;8.300;2023-02-28T16:25:20;4.35;;;3.85;;
30593;SDS011;33199;47.590;8.300;2023-02-28T16:27:50;5.13;;;4.07;;
30593;SDS011;33199;47.590;8.300;2023-02-28T16:30:22;4.10;;;3.80;;
30593;SDS011;33199;47.590;8.300;2023-02-28T16:32:50;3.83;;;3.50;;
30593;SDS011;33199;47.590;8.300;2023-02-28T16:35:17;6.32;;;3.60;;
30593;SDS011;33199;47.590;8.300;2023-02-28T16:37:44;5.22;;;3.95;;
30593;SDS011;33199;47.590;8.300;2023-02-28T16:40:17;4.72;;;3.80;;
30593;SDS011;33199;47.590;8.300;2023-02-28T16:42:45;4.47;;;3.58;;
30593;SDS011;33199;47.590;8.300;2023-02-28T16:45:17;4.05;;;3.70;;
30593;SDS011;33199;47.590;8.300;2023-02-28T16:47:45;4.50;;;3.80;;
30593;SDS011;33199;47.590;8.300;2023-02-28T16:50:18;4.80;;;3.50;;
30593;SDS011;33199;47.590;8.300;2023-02-28T16:52:45;4.22;;;3.53;;
30593;SDS011;33199;47.590;8.300;2023-02-28T16:55:11;6.55;;;3.70;;
30593;SDS011;33199;47.590;8.300;2023-02-28T16:57:38;5.43;;;3.00;;
30593;SDS011;33199;47.590;8.300;2023-02-28T17:00:04;3.72;;;3.40;;
30593;SDS011;33199;47.590;8.300;2023-02-28T17:02:32;3.50;;;3.20;;
30593;SDS011;33199;47.590;8.300;2023-02-28T17:04:58;4.00;;;3.47;;
30593;SDS011;33199;47.590;8.300;2023-02-28T17:07:24;4.18;;;3.38;;
30593;SDS011;33199;47.590;8.300;2023-02-28T17:09:50;3.42;;;3.13;;
30593;SDS011;33199;47.590;8.300;2023-02-28T17:12:15;3.70;;;3.35;;
30593;SDS011;33199;47.590;8.300;2023-02-28T17:14:41;4.95;;;3.08;;
30593;SDS011;33199;47.590;8.300;2023-02-28T17:17:07;3.95;;;3.13;;
30593;SDS011;33199;47.590;8.300;2023-02-28T17:19:34;3.20;;;2.85;;
30593;SDS011;33199;47.590;8.300;2023-02-28T17:22:01;3.40;;;3.10;;
30593;SDS011;33199;47.590;8.300;2023-02-28T17:24:28;3.55;;;2.97;;
30593;SDS011;33199;47.590;8.300;2023-02-28T17:26:53;3.22;;;2.85;;
30593;SDS011;33199;47.590;8.300;2023-02-28T17:29:19;4.20;;;3.20;;
30593;SDS011;33199;47.590;8.300;2023-02-28T17:31:46;3.40;;;3.10;;
30593;SDS011;33199;47.590;8.300;2023-02-28T17:34:12;3.67;;;3.28;;
30593;SDS011;33199;47.590;8.300;2023-02-28T17:36:43;4.43;;;2.97;;
30593;SDS011;33199;47.590;8.300;2023-02-28T17:39:11;3.13;;;2.83;;
30593;SDS011;33199;47.590;8.300;2023-02-28T17:44:06;4.28;;;3.05;;
30593;SDS011;33199;47.590;8.300;2023-02-28T17:46:31;3.78;;;3.10;;
30593;SDS011;33199;47.590;8.300;2023-02-28T17:48:57;3.42;;;3.00;;